createdAt,value
2022-09-09T00:02:23.467Z,1.98
2022-09-09T00:07:25.244Z,1.60
2022-09-09T00:12:56.700Z,1.55
2022-09-09T00:18:25.491Z,1.60
2022-09-09T00:28:42.495Z,1.80
2022-09-09T00:33:44.665Z,2.08
2022-09-09T00:38:53.475Z,1.80
2022-09-09T00:49:21.271Z,2.10
2022-09-09T00:54:30.165Z,1.63
2022-09-09T01:04:43.401Z,1.55
2022-09-09T01:10:00.445Z,1.60
2022-09-09T01:15:17.847Z,2.22
2022-09-09T01:20:26.812Z,2.05
2022-09-09T01:30:41.673Z,1.75
2022-09-09T01:35:58.399Z,1.70
2022-09-09T01:41:00.163Z,1.45
2022-09-09T01:46:03.674Z,1.70
2022-09-09T01:51:05.877Z,2.15
2022-09-09T01:56:19.832Z,1.88
2022-09-09T02:01:33.625Z,1.67
2022-09-09T02:06:38.658Z,2.30
2022-09-09T02:11:42.481Z,1.85
2022-09-09T02:17:08.074Z,1.95
2022-09-09T02:22:10.328Z,2.03
2022-09-09T02:27:13.637Z,1.90
2022-09-09T02:32:18.647Z,1.80
2022-09-09T02:37:22.959Z,2.15
2022-09-09T02:42:25.004Z,2.42
2022-09-09T02:47:40.100Z,1.83
2022-09-09T02:52:53.631Z,2.30
2022-09-09T02:57:57.800Z,2.05
2022-09-09T03:03:00.584Z,2.28
2022-09-09T03:08:03.252Z,2.00
2022-09-09T03:13:06.369Z,1.98
2022-09-09T03:18:08.252Z,2.03
2022-09-09T03:23:14.976Z,2.33
2022-09-09T03:28:17.578Z,2.58
2022-09-09T03:33:19.366Z,2.67
2022-09-09T03:38:21.071Z,2.80
2022-09-09T03:43:23.511Z,3.17
2022-09-09T03:48:26.852Z,3.83
2022-09-09T03:53:29.795Z,5.50
2022-09-09T03:58:31.546Z,4.65
2022-09-09T04:03:33.468Z,7.00
2022-09-09T04:08:36.821Z,3.40
2022-09-09T04:13:40.194Z,2.70
2022-09-09T04:18:42.772Z,3.10
2022-09-09T04:23:44.520Z,4.45
2022-09-09T04:28:46.216Z,4.78
2022-09-09T04:33:48.060Z,4.82
2022-09-09T04:38:50.218Z,5.43
2022-09-09T04:43:53.268Z,4.65
2022-09-09T04:48:55.453Z,4.22
2022-09-09T04:53:57.141Z,3.15
2022-09-09T04:58:58.907Z,4.45
2022-09-09T05:04:00.656Z,5.32
2022-09-09T05:09:02.574Z,2.67
2022-09-09T05:14:04.891Z,2.70
2022-09-09T05:19:09.040Z,3.40
2022-09-09T05:24:10.979Z,2.88
2022-09-09T05:29:12.691Z,2.90
2022-09-09T05:34:14.410Z,2.25
2022-09-09T05:39:16.190Z,2.70
2022-09-09T05:44:17.923Z,1.88
2022-09-09T05:49:19.722Z,2.85
2022-09-09T05:54:21.515Z,2.08
2022-09-09T05:59:24.653Z,2.42
2022-09-09T06:04:26.359Z,2.08
2022-09-09T06:09:28.150Z,1.90
2022-09-09T06:14:29.891Z,1.73
2022-09-09T06:19:31.972Z,1.52
2022-09-09T06:24:34.037Z,1.70
2022-09-09T06:29:35.873Z,1.80
2022-09-09T06:34:37.732Z,1.70
2022-09-09T06:39:39.890Z,1.50
2022-09-09T06:44:41.688Z,1.70
2022-09-09T06:49:48.192Z,1.60
2022-09-09T06:54:50.208Z,1.48
2022-09-09T06:59:52.032Z,1.50
2022-09-09T07:04:53.751Z,1.38
2022-09-09T07:09:55.510Z,1.33
2022-09-09T07:14:57.284Z,1.98
2022-09-09T07:19:59.117Z,1.20
2022-09-09T07:25:00.855Z,1.58
2022-09-09T07:30:03.652Z,1.40
2022-09-09T07:35:05.855Z,1.50
2022-09-09T07:40:08.092Z,1.63
2022-09-09T07:45:09.890Z,1.50
2022-09-09T07:50:12.683Z,1.35
2022-09-09T07:55:14.586Z,1.60
2022-09-09T08:00:16.552Z,1.50
2022-09-09T08:05:19.265Z,1.15
2022-09-09T08:10:21.143Z,1.20
2022-09-09T08:15:22.872Z,1.13
2022-09-09T08:20:24.612Z,1.15
2022-09-09T08:25:26.407Z,1.30
2022-09-09T08:30:28.164Z,1.00
2022-09-09T08:35:33.541Z,1.17
2022-09-09T08:40:43.379Z,0.98
2022-09-09T08:46:06.807Z,1.30
2022-09-09T08:51:09.558Z,2.45
2022-09-09T08:56:39.672Z,1.42
2022-09-09T09:02:05.242Z,1.27
2022-09-09T09:07:22.137Z,1.15
2022-09-09T09:12:26.423Z,1.50
2022-09-09T09:17:32.413Z,1.00
2022-09-09T09:22:47.407Z,1.13
2022-09-09T09:28:01.648Z,1.00
2022-09-09T09:33:06.970Z,0.80
2022-09-09T09:43:54.941Z,0.95
2022-09-09T09:49:03.840Z,0.90
2022-09-09T09:54:31.134Z,1.00
2022-09-09T09:59:40.729Z,1.00
2022-09-09T10:04:42.794Z,1.42
2022-09-09T10:09:44.660Z,1.30
2022-09-09T10:15:07.937Z,0.98
2022-09-09T10:20:12.726Z,1.95
2022-09-09T10:25:31.212Z,2.42
2022-09-09T10:31:13.656Z,1.42
2022-09-09T10:36:20.260Z,1.60
2022-09-09T10:41:57.000Z,1.83
2022-09-09T10:47:02.142Z,1.92
2022-09-09T10:52:30.123Z,1.27
2022-09-09T10:57:33.043Z,1.40
2022-09-09T11:02:35.881Z,1.50
2022-09-09T11:07:48.896Z,1.50
2022-09-09T11:12:54.867Z,1.70
2022-09-09T11:18:02.802Z,1.77
2022-09-09T11:23:10.370Z,2.10
2022-09-09T11:28:32.217Z,1.42
2022-09-09T11:33:50.258Z,1.58
2022-09-09T11:38:59.062Z,1.97
2022-09-09T11:49:05.766Z,1.90
2022-09-09T11:54:31.114Z,2.10
2022-09-09T11:59:34.149Z,3.55
2022-09-09T12:04:45.769Z,1.80
2022-09-09T12:10:09.160Z,1.50
2022-09-09T12:15:10.810Z,1.42
2022-09-09T12:20:37.020Z,1.30
2022-09-09T12:25:57.026Z,1.67
2022-09-09T12:31:22.486Z,1.27
2022-09-09T12:36:31.657Z,1.40
2022-09-09T12:41:33.390Z,1.50
2022-09-09T12:46:37.643Z,1.55
2022-09-09T12:51:39.518Z,2.28
2022-09-09T12:56:46.420Z,3.35
2022-09-09T13:02:00.123Z,1.50
2022-09-09T13:07:11.064Z,1.35
2022-09-09T13:12:19.772Z,1.73
2022-09-09T13:17:28.178Z,2.08
2022-09-09T13:22:36.818Z,1.25
2022-09-09T13:32:45.107Z,1.80
2022-09-09T13:37:47.379Z,2.08
2022-09-09T13:42:52.276Z,1.88
2022-09-09T13:47:56.443Z,2.10
2022-09-09T13:53:00.033Z,1.58
2022-09-09T13:58:05.996Z,1.20
2022-09-09T14:03:08.574Z,1.00
2022-09-09T14:08:26.071Z,1.17
2022-09-09T14:13:27.856Z,1.73
2022-09-09T14:18:30.306Z,2.53
2022-09-09T14:23:32.846Z,1.60
2022-09-09T14:33:57.937Z,1.35
2022-09-09T14:39:00.009Z,2.15
2022-09-09T14:44:01.923Z,2.00
2022-09-09T14:49:03.863Z,1.75
2022-09-09T14:54:05.782Z,2.20
2022-09-09T14:59:07.724Z,2.75
2022-09-09T15:04:13.725Z,1.88
2022-09-09T15:09:16.545Z,1.92
2022-09-09T15:14:22.054Z,2.22
2022-09-09T15:24:28.731Z,2.55
2022-09-09T15:29:30.422Z,1.50
2022-09-09T15:34:32.671Z,1.15
2022-09-09T15:39:38.575Z,1.55
2022-09-09T15:44:43.350Z,5.45
2022-09-09T15:49:45.099Z,1.92
2022-09-09T15:54:46.919Z,1.50
2022-09-09T15:59:49.239Z,1.52
2022-09-09T16:04:50.961Z,1.60
2022-09-09T16:09:53.847Z,1.98
2022-09-09T16:14:55.869Z,2.63
2022-09-09T16:19:58.634Z,1.65
2022-09-09T16:25:00.663Z,1.80
2022-09-09T16:30:02.450Z,2.30
2022-09-09T16:35:04.979Z,2.30
2022-09-09T16:40:07.480Z,2.67
2022-09-09T16:45:09.827Z,2.55
2022-09-09T16:50:11.536Z,2.67
2022-09-09T16:55:13.663Z,2.58
2022-09-09T17:00:17.536Z,3.25
2022-09-09T17:05:19.278Z,3.78
2022-09-09T17:10:20.994Z,4.65
2022-09-09T17:15:24.085Z,4.47
2022-09-09T17:20:26.388Z,3.83
2022-09-09T17:25:28.111Z,4.80
2022-09-09T17:30:29.904Z,5.78
2022-09-09T17:35:32.539Z,5.40
2022-09-09T17:40:34.279Z,5.57
2022-09-09T17:45:36.021Z,5.78
2022-09-09T17:50:38.300Z,5.60
2022-09-09T17:55:40.006Z,6.15
2022-09-09T18:00:42.071Z,3.90
2022-09-09T18:05:43.783Z,6.25
2022-09-09T18:10:55.743Z,6.32
2022-09-09T18:15:58.468Z,6.55
2022-09-09T18:21:07.570Z,3.95
2022-09-09T18:26:14.888Z,5.53
2022-09-09T18:31:19.165Z,6.20
2022-09-09T18:36:22.208Z,5.70
2022-09-09T18:41:25.753Z,8.00
2022-09-09T18:46:29.251Z,6.43
2022-09-09T18:51:33.448Z,6.18
2022-09-09T18:56:36.195Z,6.50
2022-09-09T19:01:38.769Z,5.78
2022-09-09T19:06:45.088Z,6.93
2022-09-09T19:11:46.856Z,5.18
2022-09-09T19:16:48.655Z,5.82
2022-09-09T19:21:51.696Z,6.65
2022-09-09T19:26:57.828Z,7.15
2022-09-09T19:37:23.725Z,5.38
2022-09-09T19:42:25.896Z,5.43
2022-09-09T19:47:27.768Z,5.60
2022-09-09T19:52:29.505Z,3.20
2022-09-09T19:57:31.440Z,3.90
2022-09-09T20:02:33.817Z,3.13
2022-09-09T20:07:35.591Z,3.10
2022-09-09T20:12:37.323Z,3.58
2022-09-09T20:17:39.060Z,2.75
2022-09-09T20:22:40.780Z,2.53
2022-09-09T20:27:42.788Z,2.55
2022-09-09T20:32:44.512Z,2.42
2022-09-09T20:37:46.924Z,2.47
2022-09-09T20:42:48.656Z,1.90
2022-09-09T20:47:50.843Z,2.53
2022-09-09T20:52:52.792Z,2.40
2022-09-09T20:57:54.519Z,2.58
2022-09-09T21:02:56.594Z,2.17
2022-09-09T21:07:59.126Z,2.03
2022-09-09T21:13:01.527Z,1.90
2022-09-09T21:18:03.424Z,2.45
2022-09-09T21:23:06.083Z,2.85
2022-09-09T21:28:08.816Z,2.33
2022-09-09T21:33:11.788Z,2.03
2022-09-09T21:38:16.245Z,2.00
2022-09-09T21:43:20.227Z,1.58
2022-09-09T21:48:23.742Z,2.13
2022-09-09T21:53:25.449Z,2.13
2022-09-09T21:58:27.272Z,2.53
2022-09-09T22:03:29.078Z,2.33
2022-09-09T22:08:30.894Z,2.15
2022-09-09T22:13:33.491Z,2.30
2022-09-09T22:18:36.467Z,2.92
2022-09-09T22:23:38.426Z,3.00
2022-09-09T22:28:40.306Z,2.90
2022-09-09T22:33:42.798Z,2.58
2022-09-09T22:38:44.502Z,2.67
2022-09-09T22:43:46.686Z,2.60
2022-09-09T22:48:48.428Z,1.80
2022-09-09T22:53:50.279Z,1.73
2022-09-09T22:58:56.269Z,1.83
2022-09-09T23:04:02.810Z,1.73
2022-09-09T23:09:04.774Z,1.90
2022-09-09T23:14:09.885Z,1.98
2022-09-09T23:19:15.918Z,2.92
2022-09-09T23:24:19.075Z,1.60
2022-09-09T23:29:21.632Z,1.80
2022-09-09T23:34:23.367Z,1.80
2022-09-09T23:39:25.104Z,2.00
2022-09-09T23:44:26.856Z,2.22
2022-09-09T23:49:28.866Z,1.65
2022-09-09T23:54:30.775Z,1.70
2022-09-09T23:59:32.590Z,2.10
